createdAt,value
2023-04-20T00:01:23.356Z,45.25
2023-04-20T00:03:53.428Z,45.12
2023-04-20T00:06:25.640Z,45.17
2023-04-20T00:08:55.398Z,45.07
2023-04-20T00:11:25.080Z,45.12
2023-04-20T00:13:57.422Z,45.22
2023-04-20T00:16:27.209Z,45.57
2023-04-20T00:18:56.980Z,45.66
2023-04-20T00:21:27.395Z,45.60
2023-04-20T00:23:57.164Z,45.54
2023-04-20T00:26:26.892Z,45.66
2023-04-20T00:29:00.112Z,45.65
2023-04-20T00:31:29.885Z,45.72
2023-04-20T00:33:59.687Z,45.69
2023-04-20T00:36:30.168Z,45.91
2023-04-20T00:39:02.493Z,45.88
2023-04-20T00:41:32.224Z,45.72
2023-04-20T00:44:06.460Z,45.93
2023-04-20T00:46:37.030Z,45.63
2023-04-20T00:49:08.523Z,46.03
2023-04-20T00:51:38.547Z,45.99
2023-04-20T00:54:08.815Z,46.02
2023-04-20T00:56:38.552Z,46.25
2023-04-20T00:59:13.174Z,46.47
2023-04-20T01:01:43.013Z,46.38
2023-04-20T01:04:13.045Z,46.52
2023-04-20T01:06:42.770Z,46.82
2023-04-20T01:09:12.729Z,46.72
2023-04-20T01:11:42.498Z,46.92
2023-04-20T01:14:14.987Z,47.22
2023-04-20T01:16:45.041Z,47.28
2023-04-20T01:19:15.846Z,47.34
2023-04-20T01:21:45.668Z,47.52
2023-04-20T01:24:17.929Z,47.72
2023-04-20T01:26:47.618Z,47.64
2023-04-20T01:29:17.511Z,47.80
2023-04-20T01:31:47.492Z,47.95
2023-04-20T01:34:17.821Z,48.02
2023-04-20T01:36:48.382Z,47.97
2023-04-20T01:39:20.906Z,48.02
2023-04-20T01:41:50.821Z,48.17
2023-04-20T01:44:20.912Z,48.06
2023-04-20T01:46:50.657Z,48.25
2023-04-20T01:49:20.451Z,48.28
2023-04-20T01:51:50.154Z,48.09
2023-04-20T01:54:22.419Z,48.13
2023-04-20T01:56:52.327Z,48.08
2023-04-20T01:59:22.021Z,48.16
2023-04-20T02:01:52.008Z,48.09
2023-04-20T02:04:21.732Z,48.19
2023-04-20T02:06:51.459Z,48.28
2023-04-20T02:09:23.749Z,48.49
2023-04-20T02:11:53.447Z,48.63
2023-04-20T02:14:23.133Z,48.49
2023-04-20T02:16:53.558Z,48.71
2023-04-20T02:19:23.389Z,48.68
2023-04-20T02:21:53.133Z,48.69
2023-04-20T02:24:25.772Z,48.55
2023-04-20T02:26:58.794Z,48.29
2023-04-20T02:29:28.566Z,48.47
2023-04-20T02:31:58.354Z,48.23
2023-04-20T02:34:28.182Z,48.42
2023-04-20T02:36:59.914Z,48.22
2023-04-20T02:39:32.263Z,48.47
2023-04-20T02:42:01.925Z,48.33
2023-04-20T02:44:32.044Z,48.26
2023-04-20T02:47:02.081Z,48.22
2023-04-20T02:49:32.562Z,48.19
2023-04-20T02:52:02.668Z,48.20
2023-04-20T02:54:35.276Z,48.22
2023-04-20T02:57:05.486Z,47.97
2023-04-20T02:59:37.693Z,48.03
2023-04-20T03:02:27.917Z,47.96
2023-04-20T03:04:58.616Z,48.08
2023-04-20T03:07:30.248Z,47.91
2023-04-20T03:10:02.667Z,47.91
2023-04-20T03:12:47.695Z,47.88
2023-04-20T03:15:33.599Z,47.94
2023-04-20T03:18:15.058Z,48.04
2023-04-20T03:20:44.772Z,47.82
2023-04-20T03:23:14.702Z,48.02
2023-04-20T03:25:47.227Z,47.96
2023-04-20T03:28:24.766Z,47.86
2023-04-20T03:30:54.856Z,47.99
2023-04-20T03:33:24.704Z,48.13
2023-04-20T03:35:54.499Z,48.14
2023-04-20T03:38:24.255Z,48.27
2023-04-20T03:40:57.568Z,48.07
2023-04-20T03:43:27.325Z,48.37
2023-04-20T03:45:58.409Z,48.29
2023-04-20T03:48:28.136Z,48.42
2023-04-20T03:50:59.060Z,48.65
2023-04-20T03:53:29.282Z,48.71
2023-04-20T03:56:01.842Z,48.89
2023-04-20T03:58:31.691Z,49.02
2023-04-20T04:01:15.940Z,48.93
2023-04-20T04:03:50.965Z,48.93
2023-04-20T04:06:20.821Z,49.05
2023-04-20T04:08:50.671Z,49.28
2023-04-20T04:11:22.954Z,49.41
2023-04-20T04:13:52.652Z,49.51
2023-04-20T04:16:22.608Z,49.49
2023-04-20T04:18:53.344Z,49.72
2023-04-20T04:21:23.535Z,49.70
2023-04-20T04:23:59.174Z,49.98
2023-04-20T04:26:40.325Z,49.89
2023-04-20T04:29:10.675Z,50.11
2023-04-20T04:31:40.613Z,50.23
2023-04-20T04:34:18.525Z,50.47
2023-04-20T04:36:52.761Z,50.67
2023-04-20T04:39:30.372Z,51.20
2023-04-20T04:42:11.622Z,51.98
2023-04-20T04:44:45.159Z,52.19
2023-04-20T04:47:20.089Z,53.15
2023-04-20T04:49:49.764Z,54.16
2023-04-20T04:52:19.430Z,54.58
2023-04-20T04:54:49.554Z,55.13
2023-04-20T04:57:21.829Z,55.50
2023-04-20T04:59:51.556Z,55.96
2023-04-20T05:02:21.916Z,56.27
2023-04-20T05:04:54.703Z,56.87
2023-04-20T05:07:24.948Z,56.96
2023-04-20T05:09:54.743Z,57.18
2023-04-20T05:12:27.408Z,56.85
2023-04-20T05:14:57.143Z,56.81
2023-04-20T05:17:26.933Z,56.71
2023-04-20T05:19:56.689Z,56.67
2023-04-20T05:22:26.393Z,56.70
2023-04-20T05:24:56.132Z,56.66
2023-04-20T05:27:28.509Z,56.89
2023-04-20T05:30:06.410Z,56.52
2023-04-20T05:32:48.511Z,56.47
2023-04-20T05:35:20.689Z,56.41
2023-04-20T05:37:50.398Z,56.67
2023-04-20T05:40:20.541Z,57.39
2023-04-20T05:42:52.853Z,57.58
2023-04-20T05:45:22.556Z,58.11
2023-04-20T05:47:55.856Z,58.54
2023-04-20T05:50:26.087Z,59.19
2023-04-20T05:52:56.319Z,59.31
2023-04-20T05:55:27.097Z,59.98
2023-04-20T05:57:59.381Z,60.54
2023-04-20T06:00:29.374Z,60.63
2023-04-20T06:02:59.272Z,60.64
2023-04-20T06:05:29.258Z,61.57
2023-04-20T06:07:59.035Z,61.91
2023-04-20T06:10:32.445Z,61.98
2023-04-20T06:13:04.929Z,61.98
2023-04-20T06:15:34.824Z,61.60
2023-04-20T06:18:04.591Z,62.25
2023-04-20T06:20:34.370Z,62.34
2023-04-20T06:23:04.139Z,62.35
2023-04-20T06:25:33.856Z,62.69
2023-04-20T06:28:06.422Z,63.28
2023-04-20T06:30:36.528Z,64.36
2023-04-20T06:33:06.688Z,65.61
2023-04-20T06:35:36.386Z,66.23
2023-04-20T06:38:06.112Z,66.16
2023-04-20T06:40:35.951Z,65.99
2023-04-20T06:43:08.243Z,65.74
2023-04-20T06:45:37.943Z,66.29
2023-04-20T06:48:17.149Z,67.67
2023-04-20T06:50:57.474Z,68.80
2023-04-20T06:53:27.157Z,68.85
2023-04-20T06:55:57.232Z,68.38
2023-04-20T06:58:29.545Z,69.06
2023-04-20T07:00:59.220Z,68.85
2023-04-20T07:03:29.019Z,68.93
2023-04-20T07:05:58.844Z,69.18
2023-04-20T07:08:28.505Z,69.80
2023-04-20T07:10:58.166Z,70.41
2023-04-20T07:13:33.416Z,70.76
2023-04-20T07:16:03.694Z,71.48
2023-04-20T07:18:35.279Z,72.42
2023-04-20T07:21:05.384Z,72.01
2023-04-20T07:23:35.076Z,71.93
2023-04-20T07:26:04.768Z,71.67
2023-04-20T07:28:37.258Z,70.58
2023-04-20T07:31:06.989Z,70.00
2023-04-20T07:33:36.751Z,69.80
2023-04-20T07:36:07.275Z,69.34
2023-04-20T07:38:36.904Z,69.05
2023-04-20T07:41:06.756Z,68.65
2023-04-20T07:43:39.084Z,68.40
2023-04-20T07:46:09.050Z,68.31
2023-04-20T07:48:38.948Z,67.70
2023-04-20T07:51:08.830Z,67.50
2023-04-20T07:53:39.167Z,66.98
2023-04-20T07:56:09.670Z,66.88
2023-04-20T07:58:41.910Z,66.97
2023-04-20T08:01:11.583Z,66.86
2023-04-20T08:03:41.808Z,66.40
2023-04-20T08:06:12.690Z,65.61
2023-04-20T08:08:42.438Z,65.42
2023-04-20T08:11:13.050Z,65.32
2023-04-20T08:13:45.288Z,65.09
2023-04-20T08:16:15.107Z,64.77
2023-04-20T08:18:44.922Z,64.98
2023-04-20T08:21:14.697Z,65.15
2023-04-20T08:23:44.425Z,65.37
2023-04-20T08:26:17.997Z,65.55
2023-04-20T08:28:50.373Z,65.54
2023-04-20T08:31:20.241Z,65.63
2023-04-20T08:33:49.976Z,65.47
2023-04-20T08:36:19.889Z,65.41
2023-04-20T08:38:53.442Z,65.52
2023-04-20T08:41:23.115Z,65.56
2023-04-20T08:43:55.494Z,65.66
2023-04-20T08:46:26.209Z,65.51
2023-04-20T08:48:56.370Z,65.56
2023-04-20T08:51:26.884Z,65.42
2023-04-20T08:53:58.368Z,65.17
2023-04-20T08:56:36.890Z,65.06
2023-04-20T08:59:10.640Z,64.85
2023-04-20T09:01:41.804Z,64.66
2023-04-20T09:04:19.774Z,63.94
2023-04-20T09:06:50.813Z,63.57
2023-04-20T09:09:20.995Z,62.93
2023-04-20T09:12:02.989Z,62.45
2023-04-20T09:14:45.415Z,62.03
2023-04-20T09:17:17.991Z,61.42
2023-04-20T09:19:49.136Z,60.05
2023-04-20T09:22:18.839Z,57.68
2023-04-20T09:24:48.527Z,56.38
2023-04-20T09:27:18.863Z,54.56
2023-04-20T09:30:00.310Z,53.03
2023-04-20T09:32:32.500Z,52.86
2023-04-20T09:35:02.241Z,54.19
2023-04-20T09:37:31.897Z,54.28
2023-04-20T09:40:03.049Z,53.95
2023-04-20T09:42:34.067Z,54.59
2023-04-20T09:45:06.825Z,54.89
2023-04-20T09:47:41.957Z,54.70
2023-04-20T09:50:26.780Z,54.53
2023-04-20T09:52:59.905Z,54.11
2023-04-20T09:55:30.315Z,52.22
2023-04-20T09:58:00.143Z,49.92
2023-04-20T10:00:32.568Z,49.46
2023-04-20T10:03:02.457Z,49.11
2023-04-20T10:05:39.969Z,48.93
2023-04-20T10:08:10.468Z,48.52
2023-04-20T10:10:47.750Z,48.82
2023-04-20T10:13:19.606Z,49.56
2023-04-20T10:15:52.092Z,49.71
2023-04-20T10:18:23.952Z,49.70
2023-04-20T10:20:54.588Z,50.04
2023-04-20T10:23:24.240Z,50.77
2023-04-20T10:26:01.174Z,51.40
2023-04-20T10:28:41.841Z,51.67
2023-04-20T10:31:17.158Z,51.81
2023-04-20T10:33:57.127Z,53.93
2023-04-20T10:36:28.077Z,56.60
2023-04-20T10:38:57.806Z,59.33
2023-04-20T10:41:27.553Z,61.09
2023-04-20T10:43:57.417Z,62.88
2023-04-20T10:46:29.717Z,63.57
2023-04-20T10:49:01.636Z,63.75
2023-04-20T10:51:31.676Z,63.44
2023-04-20T10:54:05.396Z,64.01
2023-04-20T10:56:43.470Z,64.64
2023-04-20T10:59:14.352Z,64.70
2023-04-20T11:01:48.094Z,64.62
2023-04-20T11:04:19.076Z,64.55
2023-04-20T11:06:51.876Z,64.45
2023-04-20T11:09:23.695Z,64.43
2023-04-20T11:12:04.234Z,63.87
2023-04-20T11:14:34.892Z,63.37
2023-04-20T11:17:07.600Z,63.23
2023-04-20T11:19:38.723Z,63.13
2023-04-20T11:22:08.990Z,63.04
2023-04-20T11:24:41.378Z,62.98
2023-04-20T11:27:11.173Z,62.80
2023-04-20T11:29:42.076Z,62.62
2023-04-20T11:32:14.587Z,62.38
2023-04-20T11:34:46.170Z,61.94
2023-04-20T11:37:17.888Z,61.15
2023-04-20T11:39:47.785Z,60.32
2023-04-20T11:42:17.751Z,58.24
2023-04-20T11:44:47.408Z,56.93
2023-04-20T11:47:19.705Z,55.29
2023-04-20T11:49:49.383Z,54.38
2023-04-20T11:52:19.062Z,53.48
2023-04-20T11:54:48.726Z,53.24
2023-04-20T11:57:18.933Z,52.87
2023-04-20T11:59:49.337Z,52.51
2023-04-20T12:02:21.650Z,51.68
2023-04-20T12:04:52.005Z,50.75
2023-04-20T12:07:21.802Z,50.45
2023-04-20T12:09:51.549Z,50.41
2023-04-20T12:12:22.204Z,49.72
2023-04-20T12:14:51.855Z,49.66
2023-04-20T12:17:24.121Z,49.54
2023-04-20T12:19:54.174Z,49.19
2023-04-20T12:22:23.984Z,48.87
2023-04-20T12:24:53.669Z,48.87
2023-04-20T12:27:23.308Z,48.52
2023-04-20T12:29:52.948Z,48.43
2023-04-20T12:32:25.214Z,47.90
2023-04-20T12:34:54.925Z,47.68
2023-04-20T12:37:24.687Z,47.50
2023-04-20T12:39:54.415Z,47.54
2023-04-20T12:42:24.243Z,47.20
2023-04-20T12:44:56.433Z,46.51
2023-04-20T12:47:28.758Z,46.21
2023-04-20T12:49:58.591Z,46.10
2023-04-20T12:52:29.263Z,45.88
2023-04-20T12:54:58.991Z,45.44
2023-04-20T12:57:28.668Z,45.76
2023-04-20T12:59:59.840Z,45.58
2023-04-20T13:02:32.442Z,45.78
2023-04-20T13:05:02.254Z,45.47
2023-04-20T13:07:31.951Z,45.77
2023-04-20T13:10:02.610Z,45.81
2023-04-20T13:12:32.331Z,45.81
2023-04-20T13:15:02.072Z,45.23
2023-04-20T13:17:34.431Z,45.16
2023-04-20T13:20:04.878Z,45.05
2023-04-20T13:22:38.904Z,44.93
2023-04-20T13:25:13.520Z,44.56
2023-04-20T13:27:43.228Z,44.82
2023-04-20T13:30:14.178Z,44.65
2023-04-20T13:32:46.427Z,45.46
2023-04-20T13:35:16.587Z,45.85
2023-04-20T13:37:47.389Z,46.42
2023-04-20T13:40:17.413Z,46.71
2023-04-20T13:42:47.093Z,46.58
2023-04-20T13:45:16.917Z,46.83
2023-04-20T13:47:49.258Z,46.71
2023-04-20T13:50:18.964Z,46.23
2023-04-20T13:52:48.634Z,46.19
2023-04-20T13:55:20.605Z,46.03
2023-04-20T13:57:50.402Z,45.36
2023-04-20T14:00:21.886Z,44.50
2023-04-20T14:02:54.249Z,44.24
2023-04-20T14:05:24.045Z,44.07
2023-04-20T14:07:53.847Z,43.93
2023-04-20T14:10:23.633Z,44.05
2023-04-20T14:12:53.368Z,43.93
2023-04-20T14:15:23.048Z,44.16
2023-04-20T14:17:55.353Z,44.17
2023-04-20T14:20:25.422Z,44.19
2023-04-20T14:22:55.382Z,44.41
2023-04-20T14:25:25.086Z,44.53
2023-04-20T14:27:54.817Z,44.55
2023-04-20T14:30:24.914Z,44.60
2023-04-20T14:33:04.078Z,44.73
2023-04-20T14:35:33.929Z,43.99
2023-04-20T14:38:03.605Z,43.71
2023-04-20T14:40:34.789Z,43.84
2023-04-20T14:43:04.489Z,44.01
2023-04-20T14:45:34.172Z,44.18
2023-04-20T14:48:06.853Z,43.94
2023-04-20T14:50:36.848Z,43.53
2023-04-20T14:53:06.512Z,43.43
2023-04-20T14:55:36.243Z,43.19
2023-04-20T14:58:05.949Z,43.32
2023-04-20T15:00:35.835Z,43.41
2023-04-20T15:03:08.258Z,43.69
2023-04-20T15:05:38.442Z,44.00
2023-04-20T15:08:08.528Z,44.48
2023-04-20T15:10:38.333Z,44.36
2023-04-20T15:13:08.786Z,44.53
2023-04-20T15:15:48.118Z,44.21
2023-04-20T15:18:21.963Z,43.97
2023-04-20T15:20:53.602Z,43.84
2023-04-20T15:23:23.456Z,43.20
2023-04-20T15:25:53.192Z,43.01
2023-04-20T15:28:22.936Z,43.04
2023-04-20T15:30:52.645Z,43.20
2023-04-20T15:33:24.911Z,43.29
2023-04-20T15:35:54.575Z,43.17
2023-04-20T15:38:24.242Z,42.92
2023-04-20T15:40:54.153Z,42.83
2023-04-20T15:43:23.826Z,42.85
2023-04-20T15:45:53.554Z,42.58
2023-04-20T15:48:25.854Z,42.11
2023-04-20T15:50:55.654Z,41.62
2023-04-20T15:53:25.384Z,41.50
2023-04-20T15:55:55.109Z,41.52
2023-04-20T15:58:24.918Z,41.24
2023-04-20T16:00:54.630Z,41.48
2023-04-20T16:03:27.029Z,41.26
2023-04-20T16:05:56.813Z,40.96
2023-04-20T16:08:26.552Z,41.25
2023-04-20T16:10:56.229Z,40.95
2023-04-20T16:13:26.312Z,40.58
2023-04-20T16:15:56.109Z,40.37
2023-04-20T16:18:29.869Z,40.58
2023-04-20T16:20:59.525Z,40.79
2023-04-20T16:23:29.349Z,41.02
2023-04-20T16:25:59.036Z,41.22
2023-04-20T16:28:29.627Z,41.42
2023-04-20T16:30:59.327Z,41.61
2023-04-20T16:33:32.564Z,41.63
2023-04-20T16:36:02.347Z,41.96
2023-04-20T16:38:32.043Z,42.03
2023-04-20T16:41:01.736Z,42.09
2023-04-20T16:43:31.656Z,42.07
2023-04-20T16:46:01.526Z,42.12
2023-04-20T16:48:34.161Z,42.04
2023-04-20T16:51:03.949Z,42.14
2023-04-20T16:53:33.734Z,41.96
2023-04-20T16:56:03.482Z,41.98
2023-04-20T16:58:33.133Z,41.92
2023-04-20T17:01:03.080Z,42.15
2023-04-20T17:03:35.824Z,42.33
2023-04-20T17:06:08.183Z,42.48
2023-04-20T17:08:38.176Z,42.55
2023-04-20T17:11:08.233Z,42.68
2023-04-20T17:13:37.986Z,42.57
2023-04-20T17:16:07.923Z,42.76
2023-04-20T17:18:41.939Z,42.81
2023-04-20T17:21:11.922Z,42.68
2023-04-20T17:23:41.662Z,42.80
2023-04-20T17:26:11.893Z,42.86
2023-04-20T17:28:41.578Z,44.00
2023-04-20T17:31:11.406Z,45.09
2023-04-20T17:33:45.102Z,47.76
2023-04-20T17:36:14.851Z,50.73
2023-04-20T17:38:44.519Z,53.19
2023-04-20T17:41:14.304Z,54.81
2023-04-20T17:43:43.982Z,56.05
2023-04-20T17:46:13.752Z,56.54
2023-04-20T17:48:46.091Z,57.41
2023-04-20T17:51:16.196Z,57.98
2023-04-20T17:53:45.955Z,58.50
2023-04-20T17:56:15.665Z,58.22
2023-04-20T17:58:45.339Z,58.25
2023-04-20T18:01:15.112Z,57.61
2023-04-20T18:03:48.476Z,57.73
2023-04-20T18:06:18.496Z,57.83
2023-04-20T18:08:48.523Z,58.02
2023-04-20T18:11:18.209Z,58.09
2023-04-20T18:13:47.909Z,58.34
2023-04-20T18:16:17.727Z,58.32
2023-04-20T18:18:50.534Z,58.69
2023-04-20T18:21:20.754Z,59.20
2023-04-20T18:23:51.480Z,59.78
2023-04-20T18:26:21.154Z,59.76
2023-04-20T18:28:50.949Z,60.33
2023-04-20T18:31:20.680Z,61.30
2023-04-20T18:33:53.010Z,61.19
2023-04-20T18:36:22.696Z,61.11
2023-04-20T18:38:54.191Z,61.31
2023-04-20T18:41:25.855Z,61.84
2023-04-20T18:43:55.877Z,61.96
2023-04-20T18:46:25.759Z,61.99
2023-04-20T18:48:58.126Z,61.92
2023-04-20T18:51:27.801Z,62.23
2023-04-20T18:53:57.488Z,62.44
2023-04-20T18:56:27.145Z,62.74
2023-04-20T18:58:58.085Z,62.61
2023-04-20T19:01:27.873Z,62.65
2023-04-20T19:04:00.707Z,62.52
2023-04-20T19:06:31.290Z,62.73
2023-04-20T19:09:01.331Z,62.82
2023-04-20T19:11:33.615Z,63.01
2023-04-20T19:14:03.301Z,63.38
2023-04-20T19:16:33.843Z,63.31
2023-04-20T19:19:06.551Z,63.05
2023-04-20T19:21:36.443Z,63.38
2023-04-20T19:24:06.511Z,63.59
2023-04-20T19:26:36.906Z,63.76
2023-04-20T19:29:06.593Z,63.53
2023-04-20T19:31:38.006Z,63.57
2023-04-20T19:34:13.541Z,63.83
2023-04-20T19:36:43.575Z,63.90
2023-04-20T19:39:13.304Z,64.33
2023-04-20T19:41:43.020Z,64.71
2023-04-20T19:44:14.483Z,64.87
2023-04-20T19:46:46.228Z,65.09
2023-04-20T19:49:18.982Z,65.49
2023-04-20T19:51:48.865Z,66.59
2023-04-20T19:54:19.065Z,67.23
2023-04-20T19:56:49.053Z,68.14
2023-04-20T19:59:19.080Z,69.72
2023-04-20T20:01:50.680Z,70.54
2023-04-20T20:04:23.404Z,71.33
2023-04-20T20:06:53.305Z,72.00
2023-04-20T20:09:24.125Z,72.31
2023-04-20T20:11:54.125Z,72.90
2023-04-20T20:14:23.854Z,73.46
2023-04-20T20:16:53.540Z,73.99
2023-04-20T20:19:25.898Z,74.62
2023-04-20T20:21:55.952Z,75.15
2023-04-20T20:24:26.146Z,75.66
2023-04-20T20:26:55.828Z,75.98
2023-04-20T20:29:25.853Z,77.16
2023-04-20T20:31:55.639Z,77.42
2023-04-20T20:34:28.067Z,78.23
2023-04-20T20:36:58.755Z,78.81
2023-04-20T20:39:28.440Z,79.59
2023-04-20T20:41:58.106Z,80.06
2023-04-20T20:44:29.026Z,80.37
2023-04-20T20:46:58.818Z,81.67
2023-04-20T20:49:31.239Z,82.29
2023-04-20T20:52:02.286Z,83.05
2023-04-20T20:54:32.103Z,83.03
2023-04-20T20:57:01.864Z,84.15
2023-04-20T20:59:31.539Z,85.27
2023-04-20T21:02:01.413Z,86.16
2023-04-20T21:04:33.764Z,86.46
2023-04-20T21:07:03.539Z,86.79
2023-04-20T21:09:33.286Z,86.83
2023-04-20T21:12:03.095Z,87.24
2023-04-20T21:14:32.767Z,87.32
2023-04-20T21:17:02.600Z,87.84
2023-04-20T21:19:35.034Z,87.90
2023-04-20T21:22:04.850Z,87.88
2023-04-20T21:24:34.552Z,88.66
2023-04-20T21:27:04.281Z,89.78
2023-04-20T21:29:33.963Z,90.74
2023-04-20T21:32:03.675Z,91.16
2023-04-20T21:34:36.114Z,91.37
2023-04-20T21:37:06.350Z,91.87
2023-04-20T21:39:36.069Z,92.16
2023-04-20T21:42:05.978Z,92.42
2023-04-20T21:44:35.833Z,92.37
2023-04-20T21:47:05.501Z,92.31
2023-04-20T21:49:37.792Z,92.62
2023-04-20T21:52:07.524Z,92.95
2023-04-20T21:54:38.074Z,93.45
2023-04-20T21:57:07.752Z,93.72
2023-04-20T21:59:37.472Z,93.63
2023-04-20T22:02:07.321Z,93.97
2023-04-20T22:04:40.021Z,93.94
2023-04-20T22:07:09.922Z,93.70
2023-04-20T22:09:39.689Z,93.55
2023-04-20T22:12:09.871Z,93.45
2023-04-20T22:14:39.536Z,93.36
2023-04-20T22:17:09.725Z,93.25
2023-04-20T22:19:42.353Z,93.18
2023-04-20T22:22:12.085Z,93.30
2023-04-20T22:24:42.118Z,93.03
2023-04-20T22:27:11.851Z,93.06
2023-04-20T22:29:41.566Z,92.85
2023-04-20T22:32:11.259Z,92.71
2023-04-20T22:34:43.512Z,92.63
2023-04-20T22:37:13.238Z,92.47
2023-04-20T22:39:42.976Z,92.69
2023-04-20T22:42:12.615Z,92.65
2023-04-20T22:44:42.305Z,92.88
2023-04-20T22:47:12.045Z,92.79
2023-04-20T22:49:45.037Z,92.66
2023-04-20T22:52:14.870Z,92.58
2023-04-20T22:54:48.246Z,92.60
2023-04-20T22:57:18.708Z,92.66
2023-04-20T22:59:48.915Z,92.58
2023-04-20T23:02:18.872Z,92.67
2023-04-20T23:04:51.673Z,92.61
2023-04-20T23:07:21.597Z,92.57
2023-04-20T23:09:51.271Z,92.44
2023-04-20T23:12:20.980Z,92.64
2023-04-20T23:14:50.964Z,92.44
2023-04-20T23:17:20.785Z,92.33
2023-04-20T23:19:53.084Z,92.43
2023-04-20T23:22:22.740Z,92.33
2023-04-20T23:24:52.433Z,92.47
2023-04-20T23:27:22.105Z,92.59
2023-04-20T23:29:52.160Z,92.58
2023-04-20T23:32:21.870Z,92.95
2023-04-20T23:34:54.265Z,93.02
2023-04-20T23:37:23.930Z,93.03
2023-04-20T23:39:53.610Z,93.46
2023-04-20T23:42:23.280Z,93.45
2023-04-20T23:44:52.958Z,93.75
2023-04-20T23:47:22.721Z,93.93
2023-04-20T23:49:55.063Z,93.98
2023-04-20T23:52:24.792Z,94.19
2023-04-20T23:54:54.516Z,94.34
2023-04-20T23:57:24.183Z,94.58
2023-04-20T23:59:53.869Z,94.50
